Time,TemperatureF,DewpointF,PressureIn,WindDirection,WindDirectionDegrees,WindSpeedMPH,WindSpeedGustMPH,Humidity,HourlyPrecipIn,Conditions,Clouds,dailyrainin,SolarRadiationWatts/m^2,SoftwareType,DateUTC
2013-03-19 00:00:00,61.4,58.7,29.92,NNW,333,5.8,5.8,91,0.22,RA,,0.28,0.0,WeatherDisplay:10.37,2013-03-19 04:00:00,
2013-03-19 00:05:00,60.3,58.3,29.91,West,272,3.5,3.5,93,0.02,RA,,0.05,0.0,WeatherDisplay:10.37,2013-03-19 04:05:00,
2013-03-19 00:10:00,59.7,58.0,29.91,NNE,23,4.6,4.6,94,0.05,RA,,0.08,0.0,WeatherDisplay:10.37,2013-03-19 04:10:00,
2013-03-19 00:15:00,59.3,57.6,29.91,WSW,243,6.9,6.9,94,0.07,RA,,0.10,0.0,WeatherDisplay:10.37,2013-03-19 04:15:00,
2013-03-19 00:20:00,58.9,57.5,29.90,WNW,289,5.8,5.8,95,0.09,RA,,0.13,0.0,WeatherDisplay:10.37,2013-03-19 04:20:00,
2013-03-19 00:25:00,58.6,57.2,29.90,NNW,336,3.5,3.5,95,0.12,RA,,0.15,0.0,WeatherDisplay:10.37,2013-03-19 04:25:00,
2013-03-19 00:30:00,58.4,57.3,29.90,NNW,337,3.5,3.5,96,0.13,RA,,0.16,0.0,WeatherDisplay:10.37,2013-03-19 04:30:00,
2013-03-19 00:35:00,58.3,57.2,29.90,North,354,3.5,3.5,96,0.13,RA,,0.16,0.0,WeatherDisplay:10.37,2013-03-19 04:35:00,
2013-03-19 00:40:00,58.2,57.1,29.90,SW,235,3.5,3.5,96,0.13,RA,,0.17,0.0,WeatherDisplay:10.37,2013-03-19 04:40:00,
2013-03-19 00:45:00,58.1,57.0,29.91,NW,315,1.2,1.2,96,0.12,RA,,0.17,0.0,WeatherDisplay:10.37,2013-03-19 04:45:00,
2013-03-19 00:50:00,58.0,56.9,29.90,North,359,2.3,2.3,96,0.11,-RA,,0.18,0.0,WeatherDisplay:10.37,2013-03-19 04:50:00,
2013-03-19 00:55:00,57.8,56.7,29.90,NNW,339,3.5,3.5,96,0.04,-RA,,0.18,0.0,WeatherDisplay:10.37,2013-03-19 04:55:00,
2013-03-19 01:00:00,57.8,56.7,29.89,NNW,339,3.5,3.5,96,0.19,-RA,,0.19,0.0,WeatherDisplay:10.37,2013-03-19 05:00:00,
2013-03-19 01:05:00,57.7,56.6,29.89,North,354,3.5,3.5,96,0.14,-RA,,0.19,0.0,WeatherDisplay:10.37,2013-03-19 05:05:00,
2013-03-19 01:10:00,57.6,56.8,29.88,North,354,2.3,2.3,97,0.11,-RA,,0.19,0.0,WeatherDisplay:10.37,2013-03-19 05:10:00,
2013-03-19 01:15:00,57.5,56.7,29.89,North,10,2.3,2.3,97,0.09,-RA,,0.19,0.0,WeatherDisplay:10.37,2013-03-19 05:15:00,
2013-03-19 01:20:00,57.4,56.6,29.88,North,10,3.5,3.5,97,0.08,-RA,,0.20,0.0,WeatherDisplay:10.37,2013-03-19 05:20:00,
2013-03-19 01:25:00,57.3,56.2,29.88,North,10,2.3,2.3,96,0.05,-RA,,0.20,0.0,WeatherDisplay:10.37,2013-03-19 05:25:00,
2013-03-19 01:30:00,57.2,56.1,29.87,North,10,0.0,0.3,96,0.04,-RA,,0.20,0.0,WeatherDisplay:10.37,2013-03-19 05:30:00,
2013-03-19 01:35:00,57.1,56.3,29.87,North,10,0.0,0.0,97,0.04,-RA,,0.20,0.0,WeatherDisplay:10.37,2013-03-19 05:35:00,
2013-03-19 01:40:00,57.0,56.2,29.87,North,10,1.2,1.2,97,0.03,-RA,,0.20,0.0,WeatherDisplay:10.37,2013-03-19 05:40:00,
2013-03-19 01:45:00,56.9,56.1,29.87,North,10,0.0,0.0,97,0.03,-RA,,0.20,0.0,WeatherDisplay:10.37,2013-03-19 05:45:00,
2013-03-19 01:50:00,56.8,56.0,29.86,North,10,0.0,0.0,97,0.02,-RA,,0.20,0.0,WeatherDisplay:10.37,2013-03-19 05:50:00,
2013-03-19 01:55:00,56.7,55.9,29.86,North,10,0.0,0.0,97,0.02,-RA,,0.20,0.0,WeatherDisplay:10.37,2013-03-19 05:55:00,
2013-03-19 02:00:00,56.7,55.9,29.85,North,10,1.2,1.2,97,0.01,-RA,,0.20,0.0,WeatherDisplay:10.37,2013-03-19 06:00:00,
2013-03-19 02:05:00,56.7,55.9,29.84,East,91,3.5,3.5,97,0.01,-RA,,0.20,0.0,WeatherDisplay:10.37,2013-03-19 06:05:00,
2013-03-19 02:10:00,56.6,55.8,29.83,East,93,3.5,3.5,97,0.01,-RA,,0.20,0.0,WeatherDisplay:10.37,2013-03-19 06:10:00,
2013-03-19 02:15:00,56.6,56.0,29.81,SE,141,6.9,6.9,98,0.01,-RA,,0.20,0.0,WeatherDisplay:10.37,2013-03-19 06:15:00,
2013-03-19 02:20:00,56.6,56.0,29.81,SSE,150,5.8,5.8,98,0.00,-RA,,0.20,0.0,WeatherDisplay:10.37,2013-03-19 06:20:00,
2013-03-19 02:25:00,56.6,56.0,29.82,SSE,158,4.6,4.6,98,0.00,-RA,,0.20,0.0,WeatherDisplay:10.37,2013-03-19 06:25:00,
2013-03-19 02:30:00,56.6,56.0,29.82,SSE,166,3.5,3.5,98,0.00,-RA,,0.20,0.0,WeatherDisplay:10.37,2013-03-19 06:30:00,
2013-03-19 02:35:00,56.6,56.0,29.83,South,172,1.2,1.2,98,0.00,-RA,,0.20,0.0,WeatherDisplay:10.37,2013-03-19 06:35:00,
2013-03-19 02:40:00,56.5,55.9,29.82,South,174,3.5,3.5,98,0.00,-RA,,0.20,0.0,WeatherDisplay:10.37,2013-03-19 06:40:00,
2013-03-19 02:45:00,56.6,56.0,29.82,South,174,3.5,3.5,98,0.00,-RA,,0.20,0.0,WeatherDisplay:10.37,2013-03-19 06:45:00,
2013-03-19 02:50:00,56.6,56.0,29.81,East,85,5.8,5.8,98,0.00,-RA,,0.20,0.0,WeatherDisplay:10.37,2013-03-19 06:50:00,
2013-03-19 02:55:00,56.7,56.1,29.83,WSW,245,2.3,2.3,98,0.00,-RA,,0.20,0.0,WeatherDisplay:10.37,2013-03-19 06:55:00,
2013-03-19 03:00:00,56.7,56.1,29.83,SSE,159,2.0,2.0,98,0.00,-RA,,0.20,0.0,WeatherDisplay:10.37,2013-03-19 07:00:00,
2013-03-19 03:05:00,56.8,56.2,29.84,WSW,247,2.3,2.3,98,0.00,-RA,,0.20,0.0,WeatherDisplay:10.37,2013-03-19 07:05:00,
2013-03-19 03:10:00,56.8,56.2,29.84,SW,222,1.2,1.2,98,0.00,-RA,,0.20,0.0,WeatherDisplay:10.37,2013-03-19 07:10:00,
2013-03-19 03:15:00,56.8,56.2,29.84,SW,222,1.2,0.0,98,0.00,-RA,,0.20,0.0,WeatherDisplay:10.37,2013-03-19 07:15:00,
2013-03-19 03:20:00,56.8,56.2,29.84,ENE,68,1.2,1.2,98,0.00,BKN,,0.20,0.0,WeatherDisplay:10.37,2013-03-19 07:20:00,
2013-03-19 03:25:00,56.8,56.2,29.85,North,8,0.0,0.2,98,0.00,BKN,,0.20,0.0,WeatherDisplay:10.37,2013-03-19 07:25:00,
2013-03-19 03:30:00,56.8,56.2,29.84,North,4,1.2,1.2,98,0.00,BKN,,0.20,0.0,WeatherDisplay:10.37,2013-03-19 07:30:00,
2013-03-19 03:35:00,56.7,56.1,29.83,ESE,105,3.5,3.5,98,0.00,BKN,,0.20,0.0,WeatherDisplay:10.37,2013-03-19 07:35:00,
2013-03-19 03:40:00,56.7,56.1,29.85,WNW,291,2.3,2.3,98,0.00,BKN,,0.20,0.0,WeatherDisplay:10.37,2013-03-19 07:40:00,
2013-03-19 03:45:00,56.8,56.2,29.83,WNW,291,1.2,0.0,98,0.00,BKN,,0.20,0.0,WeatherDisplay:10.37,2013-03-19 07:45:00,
2013-03-19 03:50:00,56.8,56.2,29.84,WSW,247,3.5,3.5,98,0.00,BKN,,0.20,0.0,WeatherDisplay:10.37,2013-03-19 07:50:00,
2013-03-19 03:55:00,56.8,56.2,29.84,WSW,241,1.2,1.2,98,0.00,BKN,,0.20,0.0,WeatherDisplay:10.37,2013-03-19 07:55:00,
2013-03-19 04:00:00,56.8,56.2,29.84,West,272,3.5,3.5,98,0.00,BKN,,0.20,0.0,WeatherDisplay:10.37,2013-03-19 08:00:00,
2013-03-19 04:05:00,56.9,56.3,29.83,SSE,147,3.5,3.5,98,0.00,OVC,,0.20,0.0,WeatherDisplay:10.37,2013-03-19 08:05:00,
2013-03-19 04:10:00,56.9,56.3,29.83,SSE,148,1.2,1.2,98,0.00,OVC,,0.20,0.0,WeatherDisplay:10.37,2013-03-19 08:10:00,
2013-03-19 04:15:00,56.8,56.2,29.83,WSW,239,2.3,2.3,98,0.00,OVC,,0.20,0.0,WeatherDisplay:10.37,2013-03-19 08:15:00,
2013-03-19 04:20:00,56.8,56.2,29.83,SW,230,2.3,2.3,98,0.00,OVC,,0.20,0.0,WeatherDisplay:10.37,2013-03-19 08:20:00,
2013-03-19 04:25:00,56.9,56.3,29.83,SW,230,3.5,3.5,98,0.00,OVC,,0.20,0.0,WeatherDisplay:10.37,2013-03-19 08:25:00,
2013-03-19 04:30:00,56.9,56.3,29.83,SW,233,3.5,3.5,98,0.00,OVC,,0.20,0.0,WeatherDisplay:10.37,2013-03-19 08:30:00,
2013-03-19 04:35:00,56.9,56.3,29.83,West,272,1.2,1.2,98,0.00,OVC,,0.20,0.0,WeatherDisplay:10.37,2013-03-19 08:35:00,
2013-03-19 04:40:00,56.8,56.2,29.81,West,272,1.2,1.2,98,0.00,OVC,,0.20,0.0,WeatherDisplay:10.37,2013-03-19 08:40:00,
2013-03-19 04:45:00,56.8,56.2,29.80,SSE,151,0.0,1.2,98,0.00,OVC,,0.20,0.0,WeatherDisplay:10.37,2013-03-19 08:45:00,
2013-03-19 04:50:00,56.8,56.2,29.81,SSE,151,1.0,1.0,98,0.00,OVC,,0.20,0.0,WeatherDisplay:10.37,2013-03-19 08:50:00,
2013-03-19 04:55:00,56.7,56.1,29.81,SW,228,0.0,0.0,98,0.00,OVC,,0.20,0.0,WeatherDisplay:10.37,2013-03-19 08:55:00,
2013-03-19 05:00:00,56.6,56.0,29.82,SW,228,1.2,1.2,98,0.00,OVC,,0.20,0.0,WeatherDisplay:10.37,2013-03-19 09:00:00,
2013-03-19 05:05:00,56.6,56.0,29.81,SW,228,1.2,0.0,98,0.00,OVC,,0.20,0.0,WeatherDisplay:10.37,2013-03-19 09:05:00,
2013-03-19 05:10:00,56.5,55.9,29.81,SW,228,0.0,0.0,98,0.00,OVC,,0.20,0.0,WeatherDisplay:10.37,2013-03-19 09:10:00,
2013-03-19 05:15:00,56.4,55.8,29.81,SW,228,0.0,0.7,98,0.00,OVC,,0.20,0.0,WeatherDisplay:10.37,2013-03-19 09:15:00,
2013-03-19 05:20:00,56.2,55.6,29.81,SW,226,1.2,1.2,98,0.00,OVC,,0.20,0.0,WeatherDisplay:10.37,2013-03-19 09:20:00,
2013-03-19 05:25:00,56.1,55.5,29.80,SW,226,0.0,0.0,98,0.00,OVC,,0.20,0.0,WeatherDisplay:10.37,2013-03-19 09:25:00,
2013-03-19 05:30:00,56.0,55.4,29.80,WSW,251,0.0,0.0,98,0.00,OVC,,0.20,0.0,WeatherDisplay:10.37,2013-03-19 09:30:00,
2013-03-19 05:35:00,55.8,55.2,29.80,WSW,251,0.0,0.0,98,0.00,OVC,,0.20,0.0,WeatherDisplay:10.37,2013-03-19 09:35:00,
2013-03-19 05:40:00,55.6,55.0,29.80,WSW,251,0.0,0.0,98,0.00,OVC,,0.20,0.0,WeatherDisplay:10.37,2013-03-19 09:40:00,
2013-03-19 05:45:00,55.4,54.8,29.81,WSW,251,0.0,0.4,98,0.00,OVC,,0.20,0.0,WeatherDisplay:10.37,2013-03-19 09:45:00,
2013-03-19 05:50:00,55.3,54.7,29.81,WSW,251,0.0,0.0,98,0.00,OVC,,0.20,0.0,WeatherDisplay:10.37,2013-03-19 09:50:00,
2013-03-19 05:55:00,55.1,54.5,29.81,WSW,251,0.0,0.0,98,0.00,OVC,,0.20,0.0,WeatherDisplay:10.37,2013-03-19 09:55:00,
2013-03-19 06:00:00,55.1,54.5,29.81,NW,317,1.2,0.0,98,0.00,OVC,,0.20,0.0,WeatherDisplay:10.37,2013-03-19 10:00:00,
2013-03-19 06:05:00,55.0,54.4,29.82,NW,317,0.0,0.0,98,0.00,OVC,,0.20,0.0,WeatherDisplay:10.37,2013-03-19 10:05:00,
2013-03-19 06:10:00,54.8,54.2,29.81,NW,317,0.0,0.0,98,0.01,RA,,0.21,0.0,WeatherDisplay:10.37,2013-03-19 10:10:00,
2013-03-19 06:15:00,54.7,54.1,29.82,NW,317,1.2,1.2,98,0.01,RA,,0.21,0.0,WeatherDisplay:10.37,2013-03-19 10:15:00,
2013-03-19 06:20:00,54.6,54.0,29.82,NW,317,0.0,0.0,98,0.01,OVC,,0.21,0.0,WeatherDisplay:10.37,2013-03-19 10:20:00,
2013-03-19 06:25:00,54.4,53.8,29.83,NW,318,0.0,0.0,98,0.01,OVC,,0.21,0.0,WeatherDisplay:10.37,2013-03-19 10:25:00,
2013-03-19 06:30:00,54.3,53.7,29.84,West,267,2.3,2.3,98,0.01,OVC,,0.21,0.0,WeatherDisplay:10.37,2013-03-19 10:30:00,
2013-03-19 06:35:00,54.4,53.8,29.84,West,268,2.3,2.3,98,0.01,OVC,,0.21,0.0,WeatherDisplay:10.37,2013-03-19 10:35:00,
2013-03-19 06:40:00,54.6,54.3,29.85,West,268,1.2,1.2,99,0.01,OVC,,0.21,0.0,WeatherDisplay:10.37,2013-03-19 10:40:00,
2013-03-19 06:45:00,54.6,54.3,29.85,West,266,1.2,1.2,99,0.01,OVC,,0.21,0.0,WeatherDisplay:10.37,2013-03-19 10:45:00,
2013-03-19 06:50:00,54.7,54.4,29.85,West,267,2.3,2.3,99,0.01,OVC,,0.21,0.0,WeatherDisplay:10.37,2013-03-19 10:50:00,
2013-03-19 06:55:00,54.9,54.6,29.87,WNW,283,2.3,2.3,99,0.01,OVC,,0.21,0.0,WeatherDisplay:10.37,2013-03-19 10:55:00,
2013-03-19 07:00:00,55.0,54.7,29.87,WNW,283,2.3,2.3,99,0.01,OVC,,0.21,0.0,WeatherDisplay:10.37,2013-03-19 11:00:00,
2013-03-19 07:05:00,55.0,54.7,29.87,WSW,251,2.3,2.3,99,0.01,BKN,,0.21,0.0,WeatherDisplay:10.37,2013-03-19 11:05:00,
2013-03-19 07:10:00,55.1,54.8,29.87,West,270,1.2,1.2,99,0.00,BKN,,0.21,0.0,WeatherDisplay:10.37,2013-03-19 11:10:00,
2013-03-19 07:15:00,55.1,54.8,29.87,West,270,1.2,0.0,99,0.00,BKN,,0.21,0.0,WeatherDisplay:10.37,2013-03-19 11:15:00,
2013-03-19 07:20:00,55.0,54.7,29.87,West,270,1.2,1.2,99,0.00,BKN,,0.21,0.0,WeatherDisplay:10.37,2013-03-19 11:20:00,
2013-03-19 07:25:00,54.9,54.6,29.87,West,270,0.0,0.1,99,0.00,BKN,,0.21,0.0,WeatherDisplay:10.37,2013-03-19 11:25:00,
2013-03-19 07:30:00,54.8,54.5,29.87,West,270,2.3,2.3,99,0.00,BKN,,0.21,0.0,WeatherDisplay:10.37,2013-03-19 11:30:00,
2013-03-19 07:35:00,54.8,54.5,29.87,West,269,0.0,0.0,99,0.00,BKN,,0.21,0.0,WeatherDisplay:10.37,2013-03-19 11:35:00,
2013-03-19 07:40:00,54.9,54.6,29.87,West,270,1.2,1.2,99,0.00,BKN,,0.21,0.0,WeatherDisplay:10.37,2013-03-19 11:40:00,
2013-03-19 07:45:00,55.1,54.8,29.88,SSW,199,3.5,3.5,99,0.00,BKN,,0.21,0.0,WeatherDisplay:10.37,2013-03-19 11:45:00,
2013-03-19 07:50:00,55.4,55.1,29.88,SW,233,3.5,3.5,99,0.00,BKN,,0.21,0.0,WeatherDisplay:10.37,2013-03-19 11:50:00,
2013-03-19 07:55:00,55.9,55.6,29.89,West,264,2.3,2.3,99,0.00,BKN,,0.21,0.0,WeatherDisplay:10.37,2013-03-19 11:55:00,
2013-03-19 08:00:00,56.1,55.8,29.88,WSW,249,3.5,3.5,99,0.00,BKN,,0.21,0.0,WeatherDisplay:10.37,2013-03-19 12:00:00,
2013-03-19 08:05:00,56.4,56.1,29.88,West,280,3.5,3.5,99,0.00,BKN,,0.21,0.0,WeatherDisplay:10.37,2013-03-19 12:05:00,
2013-03-19 08:10:00,56.6,56.3,29.88,WSW,257,1.2,1.2,99,0.00,BKN,,0.21,0.0,WeatherDisplay:10.37,2013-03-19 12:10:00,
2013-03-19 08:15:00,56.7,56.4,29.87,WSW,253,3.5,3.5,99,0.00,BKN,,0.21,0.0,WeatherDisplay:10.37,2013-03-19 12:15:00,
2013-03-19 08:20:00,56.9,56.6,29.88,West,273,2.3,2.3,99,0.00,BKN,,0.21,0.0,WeatherDisplay:10.37,2013-03-19 12:20:00,
2013-03-19 08:25:00,56.9,56.6,29.87,West,268,2.3,2.3,99,0.00,BKN,,0.21,0.0,WeatherDisplay:10.37,2013-03-19 12:25:00,
2013-03-19 08:30:00,57.0,56.7,29.88,WSW,246,3.5,3.5,99,0.00,BKN,,0.21,0.0,WeatherDisplay:10.37,2013-03-19 12:30:00,
2013-03-19 08:35:00,57.0,56.7,29.87,West,273,1.2,1.2,99,0.00,BKN,,0.21,0.0,WeatherDisplay:10.37,2013-03-19 12:35:00,
2013-03-19 08:40:00,57.0,56.7,29.86,NNE,28,3.5,3.5,99,0.00,BKN,,0.21,0.0,WeatherDisplay:10.37,2013-03-19 12:40:00,
2013-03-19 08:45:00,57.1,56.8,29.87,NNE,28,1.2,1.2,99,0.00,BKN,,0.21,0.0,WeatherDisplay:10.37,2013-03-19 12:45:00,
2013-03-19 08:50:00,57.2,56.9,29.88,NW,322,1.2,1.2,99,0.00,BKN,,0.21,0.0,WeatherDisplay:10.37,2013-03-19 12:50:00,
2013-03-19 08:55:00,57.2,56.9,29.89,NW,312,2.3,2.3,99,0.00,BKN,,0.21,0.0,WeatherDisplay:10.37,2013-03-19 12:55:00,
2013-03-19 09:00:00,57.5,57.2,29.89,West,276,1.2,1.2,99,0.00,BKN,,0.21,0.0,WeatherDisplay:10.37,2013-03-19 13:00:00,
2013-03-19 09:05:00,58.1,57.8,29.89,WNW,288,2.3,2.3,99,0.00,BKN,,0.21,0.0,WeatherDisplay:10.37,2013-03-19 13:05:00,
2013-03-19 09:10:00,58.7,58.4,29.89,NNW,345,1.2,1.2,99,0.00,BKN,,0.21,0.0,WeatherDisplay:10.37,2013-03-19 13:10:00,
2013-03-19 09:15:00,59.0,58.7,29.89,West,275,3.5,3.5,99,0.00,BKN,,0.21,0.0,WeatherDisplay:10.37,2013-03-19 13:15:00,
2013-03-19 09:20:00,59.1,58.8,29.90,WSW,237,3.5,3.5,99,0.00,SCT,,0.21,0.0,WeatherDisplay:10.37,2013-03-19 13:20:00,
2013-03-19 09:25:00,59.3,58.7,29.90,WNW,285,2.3,2.3,98,0.00,SCT,,0.21,0.0,WeatherDisplay:10.37,2013-03-19 13:25:00,
2013-03-19 09:30:00,59.3,58.4,29.89,NNW,335,3.5,3.5,97,0.00,SCT,,0.21,0.0,WeatherDisplay:10.37,2013-03-19 13:30:00,
2013-03-19 09:35:00,59.8,58.9,29.89,West,276,2.3,2.3,97,0.00,SCT,,0.21,0.0,WeatherDisplay:10.37,2013-03-19 13:35:00,
2013-03-19 09:40:00,60.5,59.6,29.89,WNW,283,4.6,4.6,97,0.00,SCT,,0.21,0.0,WeatherDisplay:10.37,2013-03-19 13:40:00,
2013-03-19 09:45:00,60.9,59.5,29.89,SSW,193,2.3,2.3,95,0.00,SCT,,0.21,0.0,WeatherDisplay:10.37,2013-03-19 13:45:00,
2013-03-19 09:50:00,61.0,59.3,29.89,NNW,335,3.5,3.5,94,0.00,SCT,,0.21,0.0,WeatherDisplay:10.37,2013-03-19 13:50:00,
2013-03-19 09:55:00,61.1,59.1,29.88,WSW,247,8.1,8.1,93,0.00,SCT,,0.21,0.0,WeatherDisplay:10.37,2013-03-19 13:55:00,
2013-03-19 10:00:00,61.0,58.7,29.89,WSW,249,3.5,3.5,92,0.00,SCT,,0.21,0.0,WeatherDisplay:10.37,2013-03-19 14:00:00,
2013-03-19 10:05:00,61.2,59.2,29.89,North,359,2.3,2.3,93,0.00,SCT,,0.21,0.0,WeatherDisplay:10.37,2013-03-19 14:05:00,
2013-03-19 10:10:00,61.6,59.6,29.89,West,276,6.9,6.9,93,0.00,SCT,,0.21,0.0,WeatherDisplay:10.37,2013-03-19 14:10:00,
2013-03-19 10:15:00,62.2,59.8,29.89,SSW,200,4.6,4.6,92,0.00,SCT,,0.21,0.0,WeatherDisplay:10.37,2013-03-19 14:15:00,
2013-03-19 10:20:00,62.4,59.7,29.89,North,10,3.5,3.5,91,0.00,BKN,,0.21,0.0,WeatherDisplay:10.37,2013-03-19 14:20:00,
2013-03-19 10:25:00,61.9,58.6,29.90,SE,140,3.5,3.5,89,0.00,BKN,,0.21,0.0,WeatherDisplay:10.37,2013-03-19 14:25:00,
2013-03-19 10:30:00,61.6,58.3,29.90,NNE,33,4.6,4.6,89,0.00,BKN,,0.21,0.0,WeatherDisplay:10.37,2013-03-19 14:30:00,
2013-03-19 10:35:00,61.3,58.3,29.90,North,349,3.5,3.5,90,0.00,BKN,,0.21,0.0,WeatherDisplay:10.37,2013-03-19 14:35:00,
2013-03-19 10:40:00,61.2,57.9,29.90,NW,323,4.6,4.6,89,0.00,BKN,,0.21,0.0,WeatherDisplay:10.37,2013-03-19 14:40:00,
2013-03-19 10:45:00,61.2,58.2,29.90,NW,326,1.2,1.2,90,0.00,BKN,,0.21,0.0,WeatherDisplay:10.37,2013-03-19 14:45:00,
2013-03-19 10:50:00,61.4,58.4,29.90,WNW,285,10.4,10.4,90,0.00,BKN,,0.21,0.0,WeatherDisplay:10.37,2013-03-19 14:50:00,
2013-03-19 10:55:00,61.9,58.9,29.90,South,183,6.9,6.9,90,0.00,BKN,,0.21,0.0,WeatherDisplay:10.37,2013-03-19 14:55:00,
2013-03-19 11:00:00,62.9,59.3,29.90,North,350,4.6,4.6,88,0.00,BKN,,0.21,0.0,WeatherDisplay:10.37,2013-03-19 15:00:00,
2013-03-19 11:05:00,63.6,60.0,29.90,North,354,3.5,3.5,88,0.00,BKN,,0.21,0.0,WeatherDisplay:10.37,2013-03-19 15:05:00,
2013-03-19 11:10:00,64.1,59.5,29.90,West,260,3.5,3.5,85,0.00,BKN,,0.21,0.0,WeatherDisplay:10.37,2013-03-19 15:10:00,
2013-03-19 11:15:00,64.4,59.8,29.90,NW,313,2.3,2.3,85,0.00,BKN,,0.21,0.0,WeatherDisplay:10.37,2013-03-19 15:15:00,
2013-03-19 11:20:00,64.8,59.9,29.90,West,260,3.5,3.5,84,0.00,BKN,,0.21,0.0,WeatherDisplay:10.37,2013-03-19 15:20:00,
2013-03-19 11:25:00,65.0,60.4,29.90,WNW,298,2.3,2.3,85,0.00,BKN,,0.21,0.0,WeatherDisplay:10.37,2013-03-19 15:25:00,
2013-03-19 11:30:00,65.6,60.3,29.91,SW,214,3.5,3.5,83,0.00,BKN,,0.21,0.0,WeatherDisplay:10.37,2013-03-19 15:30:00,
2013-03-19 11:35:00,66.2,60.5,29.91,North,9,2.3,2.3,82,0.00,BKN,,0.21,0.0,WeatherDisplay:10.37,2013-03-19 15:35:00,
2013-03-19 11:40:00,66.9,60.2,29.91,North,349,3.5,3.5,79,0.00,BKN,,0.21,0.0,WeatherDisplay:10.37,2013-03-19 15:40:00,
2013-03-19 11:46:00,67.5,60.4,29.92,SSW,212,4.6,4.6,78,0.00,BKN,,0.21,0.0,WeatherDisplay:10.37,2013-03-19 15:46:00,
2013-03-19 11:51:00,67.7,59.9,29.92,NW,313,5.8,5.8,76,0.00,BKN,,0.21,0.0,WeatherDisplay:10.37,2013-03-19 15:51:00,
2013-03-19 11:56:00,67.7,60.6,29.92,North,10,2.3,2.3,78,0.00,BKN,,0.21,0.0,WeatherDisplay:10.37,2013-03-19 15:56:00,
2013-03-19 12:01:00,67.8,60.0,29.92,North,359,4.0,4.0,76,0.00,BKN,,0.21,0.0,WeatherDisplay:10.37,2013-03-19 16:01:00,
2013-03-19 12:06:00,68.1,58.3,29.92,NW,305,8.1,8.1,71,0.00,BKN,,0.21,0.0,WeatherDisplay:10.37,2013-03-19 16:06:00,
2013-03-19 12:11:00,68.5,60.3,29.92,SW,231,2.3,2.3,75,0.00,BKN,,0.21,0.0,WeatherDisplay:10.37,2013-03-19 16:11:00,
2013-03-19 12:16:00,69.1,59.3,29.92,WSW,258,4.6,4.6,71,0.00,BKN,,0.21,0.0,WeatherDisplay:10.37,2013-03-19 16:16:00,
2013-03-19 12:21:00,69.4,58.4,29.92,West,272,3.5,3.5,68,0.00,SCT,,0.21,0.0,WeatherDisplay:10.37,2013-03-19 16:21:00,
2013-03-19 12:26:00,69.4,60.0,29.92,NW,318,3.5,3.5,72,0.00,SCT,,0.21,0.0,WeatherDisplay:10.37,2013-03-19 16:26:00,
2013-03-19 12:31:00,69.4,60.0,29.92,West,279,3.5,3.5,72,0.00,SCT,,0.21,0.0,WeatherDisplay:10.37,2013-03-19 16:31:00,
2013-03-19 12:36:00,69.4,58.8,29.92,SSW,198,3.5,3.5,69,0.00,SCT,,0.21,0.0,WeatherDisplay:10.37,2013-03-19 16:36:00,
2013-03-19 12:41:00,69.4,58.8,29.92,NW,308,4.6,4.6,69,0.00,SCT,,0.21,0.0,WeatherDisplay:10.37,2013-03-19 16:41:00,
2013-03-19 12:46:00,69.8,58.8,29.92,WSW,249,5.8,5.8,68,0.00,SCT,,0.21,0.0,WeatherDisplay:10.37,2013-03-19 16:46:00,
2013-03-19 12:51:00,70.2,57.9,29.91,SSW,198,3.5,3.5,65,0.00,SCT,,0.21,0.0,WeatherDisplay:10.37,2013-03-19 16:51:00,
2013-03-19 12:56:00,70.5,59.0,29.91,WNW,303,9.2,9.2,67,0.00,SCT,,0.21,0.0,WeatherDisplay:10.37,2013-03-19 16:56:00,
2013-03-19 13:01:00,70.9,59.4,29.91,SE,137,3.5,3.5,67,0.00,SCT,,0.21,0.0,WeatherDisplay:10.37,2013-03-19 17:01:00,
2013-03-19 13:06:00,71.4,58.1,29.91,SW,231,4.6,4.6,63,0.00,SCT,,0.21,0.0,WeatherDisplay:10.37,2013-03-19 17:06:00,
2013-03-19 13:11:00,71.8,58.5,29.91,WSW,246,5.8,5.8,63,0.00,SCT,,0.21,0.0,WeatherDisplay:10.37,2013-03-19 17:11:00,
2013-03-19 13:16:00,72.1,59.2,29.90,West,263,3.5,3.5,64,0.00,SCT,,0.21,0.0,WeatherDisplay:10.37,2013-03-19 17:16:00,
2013-03-19 13:21:00,72.3,58.5,29.90,NNW,327,4.6,4.6,62,0.00,SCT,,0.21,0.0,WeatherDisplay:10.37,2013-03-19 17:21:00,
2013-03-19 13:26:00,72.6,58.8,29.90,WSW,258,3.5,3.5,62,0.00,SCT,,0.21,0.0,WeatherDisplay:10.37,2013-03-19 17:26:00,
2013-03-19 13:31:00,72.9,59.1,29.90,NNE,22,6.0,6.0,62,0.00,SCT,,0.21,0.0,WeatherDisplay:10.37,2013-03-19 17:31:00,
2013-03-19 13:36:00,72.8,58.1,29.90,North,4,3.5,3.5,60,0.00,SCT,,0.21,0.0,WeatherDisplay:10.37,2013-03-19 17:36:00,
2013-03-19 13:41:00,73.1,58.4,29.90,SW,228,3.5,3.5,60,0.00,SCT,,0.21,0.0,WeatherDisplay:10.37,2013-03-19 17:41:00,
2013-03-19 13:46:00,73.1,56.5,29.90,North,359,5.8,5.8,56,0.00,SCT,,0.21,0.0,WeatherDisplay:10.37,2013-03-19 17:46:00,
2013-03-19 13:51:00,72.7,57.1,29.90,North,4,5.8,5.8,58,0.00,SCT,,0.21,0.0,WeatherDisplay:10.37,2013-03-19 17:51:00,
2013-03-19 13:56:00,72.6,57.0,29.90,NNE,14,6.9,6.9,58,0.00,SCT,,0.21,0.0,WeatherDisplay:10.37,2013-03-19 17:56:00,
2013-03-19 14:01:00,72.8,57.6,29.89,North,349,4.6,4.6,59,0.00,SCT,,0.21,0.0,WeatherDisplay:10.37,2013-03-19 18:01:00,
2013-03-19 14:06:00,73.6,58.4,29.89,West,267,2.3,2.3,59,0.00,SCT,,0.21,0.0,WeatherDisplay:10.37,2013-03-19 18:06:00,
2013-03-19 14:11:00,74.4,57.7,29.89,West,270,3.5,3.5,56,0.00,SCT,,0.21,0.0,WeatherDisplay:10.37,2013-03-19 18:11:00,
2013-03-19 14:16:00,74.7,57.5,29.89,NW,308,2.3,2.3,55,0.00,SCT,,0.21,0.0,WeatherDisplay:10.37,2013-03-19 18:16:00,
2013-03-19 14:21:00,74.9,57.6,29.89,West,280,3.0,3.0,55,0.00,FEW,,0.21,0.0,WeatherDisplay:10.37,2013-03-19 18:21:00,
2013-03-19 14:26:00,75.1,56.8,29.89,West,276,3.5,3.5,53,0.00,FEW,,0.21,0.0,WeatherDisplay:10.37,2013-03-19 18:26:00,
2013-03-19 14:31:00,75.3,56.5,29.88,North,349,4.6,4.6,52,0.00,FEW,,0.21,0.0,WeatherDisplay:10.37,2013-03-19 18:31:00,
2013-03-19 14:36:00,75.3,56.5,29.88,NE,52,3.5,4.0,52,0.00,FEW,,0.21,0.0,WeatherDisplay:10.37,2013-03-19 18:36:00,
2013-03-19 14:41:00,75.4,56.5,29.88,West,274,3.5,3.5,52,0.00,FEW,,0.21,0.0,WeatherDisplay:10.37,2013-03-19 18:41:00,
2013-03-19 14:46:00,75.9,56.5,29.88,NW,312,3.5,3.5,51,0.00,FEW,,0.21,0.0,WeatherDisplay:10.37,2013-03-19 18:46:00,
2013-03-19 14:51:00,76.4,55.8,29.88,WSW,244,4.0,4.0,49,0.00,FEW,,0.21,0.0,WeatherDisplay:10.37,2013-03-19 18:51:00,
2013-03-19 14:56:00,76.7,55.0,29.88,WNW,296,3.5,3.5,47,0.00,FEW,,0.21,0.0,WeatherDisplay:10.37,2013-03-19 18:56:00,
2013-03-19 15:01:00,76.5,56.5,29.88,NW,308,3.5,3.5,50,0.00,FEW,,0.21,0.0,WeatherDisplay:10.37,2013-03-19 19:01:00,
2013-03-19 15:06:00,76.4,54.7,29.87,SW,220,1.2,1.2,47,0.00,FEW,,0.21,0.0,WeatherDisplay:10.37,2013-03-19 19:06:00,
2013-03-19 15:11:00,76.4,54.7,29.87,North,354,4.6,4.6,47,0.00,FEW,,0.21,0.0,WeatherDisplay:10.37,2013-03-19 19:11:00,
2013-03-19 15:16:00,76.3,55.2,29.87,NE,48,3.5,3.5,48,0.00,FEW,,0.21,0.0,WeatherDisplay:10.37,2013-03-19 19:16:00,
2013-03-19 15:21:00,76.4,54.1,29.87,NNW,344,4.6,4.6,46,0.00,FEW,,0.21,0.0,WeatherDisplay:10.37,2013-03-19 19:21:00,
2013-03-19 15:26:00,76.5,53.0,29.87,NW,318,4.6,4.6,44,0.00,FEW,,0.21,0.0,WeatherDisplay:10.37,2013-03-19 19:26:00,
2013-03-19 15:31:00,76.4,52.9,29.87,SSW,213,9.2,9.2,44,0.00,FEW,,0.21,0.0,WeatherDisplay:10.37,2013-03-19 19:31:00,
2013-03-19 15:36:00,76.8,53.2,29.86,SW,216,4.6,4.6,44,0.00,FEW,,0.21,0.0,WeatherDisplay:10.37,2013-03-19 19:36:00,
2013-03-19 15:41:00,77.1,52.2,29.86,WSW,247,4.0,4.0,42,0.00,FEW,,0.21,0.0,WeatherDisplay:10.37,2013-03-19 19:41:00,
2013-03-19 15:46:00,77.3,50.4,29.86,West,278,5.8,5.8,39,0.00,FEW,,0.21,0.0,WeatherDisplay:10.37,2013-03-19 19:46:00,
2013-03-19 15:51:00,77.1,50.2,29.86,NW,322,2.3,2.3,39,0.00,FEW,,0.21,0.0,WeatherDisplay:10.37,2013-03-19 19:51:00,
2013-03-19 15:56:00,76.9,49.4,29.87,NW,323,3.5,3.6,38,0.00,FEW,,0.21,0.0,WeatherDisplay:10.37,2013-03-19 19:56:00,
2013-03-19 16:01:00,76.6,51.1,29.87,WSW,246,3.5,3.5,41,0.00,FEW,,0.21,0.0,WeatherDisplay:10.37,2013-03-19 20:01:00,
2013-03-19 16:06:00,76.5,48.3,29.87,WSW,237,4.6,4.6,37,0.00,FEW,,0.21,0.0,WeatherDisplay:10.37,2013-03-19 20:06:00,
2013-03-19 16:11:00,76.3,48.8,29.87,South,187,3.5,3.5,38,0.00,FEW,,0.21,0.0,WeatherDisplay:10.37,2013-03-19 20:11:00,
2013-03-19 16:16:00,76.0,49.2,29.87,NNE,28,4.6,4.6,39,0.00,FEW,,0.21,0.0,WeatherDisplay:10.37,2013-03-19 20:16:00,
2013-03-19 16:21:00,75.8,46.9,29.87,NW,314,5.8,5.8,36,0.00,CLR,,0.21,0.0,WeatherDisplay:10.37,2013-03-19 20:21:00,
2013-03-19 16:26:00,75.6,48.2,29.87,WSW,237,3.5,3.5,38,0.00,CLR,,0.21,0.0,WeatherDisplay:10.37,2013-03-19 20:26:00,
2013-03-19 16:31:00,75.6,48.2,29.87,West,275,4.6,4.6,38,0.00,CLR,,0.21,0.0,WeatherDisplay:10.37,2013-03-19 20:31:00,
2013-03-19 16:36:00,75.6,48.2,29.87,WNW,290,4.6,4.6,38,0.00,CLR,,0.21,0.0,WeatherDisplay:10.37,2013-03-19 20:36:00,
2013-03-19 16:41:00,75.6,47.5,29.87,WSW,258,3.5,3.5,37,0.00,CLR,,0.21,0.0,WeatherDisplay:10.37,2013-03-19 20:41:00,
2013-03-19 16:46:00,75.5,46.7,29.87,West,266,4.6,4.6,36,0.00,CLR,,0.21,0.0,WeatherDisplay:10.37,2013-03-19 20:46:00,
2013-03-19 16:51:00,75.4,46.6,29.87,SW,233,2.3,2.3,36,0.00,CLR,,0.21,0.0,WeatherDisplay:10.37,2013-03-19 20:51:00,
2013-03-19 16:56:00,75.3,47.2,29.87,WSW,247,3.5,3.5,37,0.00,CLR,,0.21,0.0,WeatherDisplay:10.37,2013-03-19 20:56:00,
2013-03-19 17:01:00,75.3,47.2,29.87,West,281,3.0,3.0,37,0.00,CLR,,0.21,0.0,WeatherDisplay:10.37,2013-03-19 21:01:00,
2013-03-19 17:06:00,75.3,46.5,29.87,West,260,3.5,3.6,36,0.00,CLR,,0.21,0.0,WeatherDisplay:10.37,2013-03-19 21:06:00,
2013-03-19 17:11:00,75.3,44.2,29.87,WSW,254,3.5,3.5,33,0.00,CLR,,0.21,0.0,WeatherDisplay:10.37,2013-03-19 21:11:00,
2013-03-19 17:16:00,75.2,45.7,29.87,West,277,3.5,3.5,35,0.00,CLR,,0.21,0.0,WeatherDisplay:10.37,2013-03-19 21:16:00,
2013-03-19 17:21:00,75.3,43.4,29.87,WSW,257,3.5,3.5,32,0.00,CLR,,0.21,0.0,WeatherDisplay:10.37,2013-03-19 21:21:00,
2013-03-19 17:26:00,75.2,44.1,29.87,West,278,3.5,3.5,33,0.00,CLR,,0.21,0.0,WeatherDisplay:10.37,2013-03-19 21:26:00,
2013-03-19 17:31:00,75.1,43.2,29.87,WSW,241,3.5,3.5,32,0.00,CLR,,0.21,0.0,WeatherDisplay:10.37,2013-03-19 21:31:00,
2013-03-19 17:36:00,74.9,43.0,29.87,WSW,245,3.5,3.5,32,0.00,CLR,,0.21,0.0,WeatherDisplay:10.37,2013-03-19 21:36:00,
2013-03-19 17:41:00,74.9,43.8,29.87,SSW,212,3.5,3.5,33,0.00,CLR,,0.21,0.0,WeatherDisplay:10.37,2013-03-19 21:41:00,
2013-03-19 17:46:00,75.0,43.9,29.87,West,264,3.5,3.5,33,0.00,CLR,,0.21,0.0,WeatherDisplay:10.37,2013-03-19 21:46:00,
2013-03-19 17:51:00,74.9,45.4,29.87,WNW,291,1.2,0.0,35,0.00,CLR,,0.21,0.0,WeatherDisplay:10.37,2013-03-19 21:51:00,
2013-03-19 17:56:00,74.8,43.0,29.87,SW,231,1.2,1.5,32,0.00,CLR,,0.21,0.0,WeatherDisplay:10.37,2013-03-19 21:56:00,
2013-03-19 18:01:00,74.5,43.5,29.88,NNW,341,3.5,3.5,33,0.00,CLR,,0.21,0.0,WeatherDisplay:10.37,2013-03-19 22:01:00,
2013-03-19 18:06:00,74.2,43.2,29.88,West,262,1.2,1.2,33,0.00,CLR,,0.21,0.0,WeatherDisplay:10.37,2013-03-19 22:06:00,
2013-03-19 18:11:00,74.0,42.3,29.88,WNW,290,3.5,3.5,32,0.00,CLR,,0.21,0.0,WeatherDisplay:10.37,2013-03-19 22:11:00,
2013-03-19 18:17:00,74.2,43.2,29.88,West,269,2.3,2.3,33,0.00,CLR,,0.21,0.0,WeatherDisplay:10.37,2013-03-19 22:17:00,
2013-03-19 18:22:00,74.1,43.1,29.88,SW,228,2.3,2.3,33,0.00,CLR,,0.21,0.0,WeatherDisplay:10.37,2013-03-19 22:22:00,
2013-03-19 18:27:00,73.9,44.5,29.88,NW,306,2.3,2.3,35,0.00,CLR,,0.21,0.0,WeatherDisplay:10.37,2013-03-19 22:27:00,
2013-03-19 18:32:00,73.5,41.8,29.88,NW,308,2.3,0.0,32,0.00,CLR,,0.21,0.0,WeatherDisplay:10.37,2013-03-19 22:32:00,
2013-03-19 18:37:00,73.1,41.5,29.88,WNW,289,2.3,2.3,32,0.00,CLR,,0.21,0.0,WeatherDisplay:10.37,2013-03-19 22:37:00,
2013-03-19 18:42:00,72.8,42.8,29.89,WNW,301,2.3,2.3,34,0.00,CLR,,0.21,0.0,WeatherDisplay:10.37,2013-03-19 22:42:00,
2013-03-19 18:47:00,72.3,43.1,29.89,WNW,298,2.3,2.3,35,0.00,CLR,,0.21,0.0,WeatherDisplay:10.37,2013-03-19 22:47:00,
2013-03-19 18:52:00,71.9,44.9,29.89,WNW,298,1.2,1.2,38,0.00,CLR,,0.21,0.0,WeatherDisplay:10.37,2013-03-19 22:52:00,
2013-03-19 18:57:00,71.2,44.3,29.90,West,265,3.5,3.5,38,0.00,CLR,,0.21,0.0,WeatherDisplay:10.37,2013-03-19 22:57:00,
2013-03-19 19:02:00,70.5,41.5,29.90,West,268,1.2,1.2,35,0.00,CLR,,0.21,0.0,WeatherDisplay:10.37,2013-03-19 23:02:00,
2013-03-19 19:07:00,70.0,40.3,29.90,West,276,3.5,3.5,34,0.00,CLR,,0.21,0.0,WeatherDisplay:10.37,2013-03-19 23:07:00,
2013-03-19 19:12:00,69.5,38.3,29.90,West,272,1.2,1.2,32,0.00,CLR,,0.21,0.0,WeatherDisplay:10.37,2013-03-19 23:12:00,
2013-03-19 19:17:00,69.0,39.4,29.90,WNW,289,3.5,3.5,34,0.00,CLR,,0.21,0.0,WeatherDisplay:10.37,2013-03-19 23:17:00,
2013-03-19 19:22:00,68.6,39.1,29.90,WNW,287,2.3,2.3,34,0.00,CLR,,0.21,0.0,WeatherDisplay:10.37,2013-03-19 23:22:00,
2013-03-19 19:27:00,68.1,37.1,29.91,WNW,289,0.0,0.1,32,0.00,CLR,,0.21,0.0,WeatherDisplay:10.37,2013-03-19 23:27:00,
2013-03-19 19:32:00,67.6,38.2,29.91,WNW,288,1.2,1.2,34,0.00,CLR,,0.21,0.0,WeatherDisplay:10.37,2013-03-19 23:32:00,
2013-03-19 19:37:00,67.1,39.2,29.91,WNW,292,0.0,0.0,36,0.00,CLR,,0.21,0.0,WeatherDisplay:10.37,2013-03-19 23:37:00,
2013-03-19 19:42:00,66.5,40.1,29.91,WNW,291,0.0,0.1,38,0.00,CLR,,0.21,0.0,WeatherDisplay:10.37,2013-03-19 23:42:00,
2013-03-19 19:48:00,65.9,38.2,29.91,WNW,292,0.0,0.0,36,0.00,CLR,,0.21,0.0,WeatherDisplay:10.37,2013-03-19 23:48:00,
2013-03-19 19:53:00,65.3,39.0,29.91,WNW,292,0.0,0.0,38,0.00,CLR,,0.21,0.0,WeatherDisplay:10.37,2013-03-19 23:53:00,
2013-03-19 19:58:00,64.7,38.5,29.92,WNW,292,1.2,0.0,38,0.00,CLR,,0.21,0.0,WeatherDisplay:10.37,2013-03-19 23:58:00,
2013-03-19 20:03:00,64.1,38.0,29.92,WNW,292,0.0,0.0,38,0.00,CLR,,0.21,0.0,WeatherDisplay:10.37,2013-03-20 00:03:00,
2013-03-19 20:08:00,63.7,38.9,29.92,WNW,292,0.0,0.1,40,0.00,CLR,,0.21,0.0,WeatherDisplay:10.37,2013-03-20 00:08:00,
2013-03-19 20:13:00,63.2,40.3,29.92,WNW,292,0.0,0.0,43,0.00,CLR,,0.21,0.0,WeatherDisplay:10.37,2013-03-20 00:13:00,
2013-03-19 20:18:00,62.7,39.9,29.92,WNW,303,1.2,1.2,43,0.00,CLR,,0.21,0.0,WeatherDisplay:10.37,2013-03-20 00:18:00,
2013-03-19 20:23:00,62.2,40.6,29.92,WNW,302,0.0,0.0,45,0.00,CLR,,0.21,0.0,WeatherDisplay:10.37,2013-03-20 00:23:00,
2013-03-19 20:28:00,61.8,43.0,29.92,NW,324,0.0,0.0,50,0.00,CLR,,0.21,0.0,WeatherDisplay:10.37,2013-03-20 00:28:00,
2013-03-19 20:33:00,61.5,42.7,29.92,NW,324,1.2,0.0,50,0.00,CLR,,0.21,0.0,WeatherDisplay:10.37,2013-03-20 00:33:00,
2013-03-19 20:38:00,61.1,42.8,29.93,NW,324,0.0,0.1,51,0.00,CLR,,0.21,0.0,WeatherDisplay:10.37,2013-03-20 00:38:00,
2013-03-19 20:43:00,60.7,40.9,29.93,NW,324,0.0,0.0,48,0.00,CLR,,0.21,0.0,WeatherDisplay:10.37,2013-03-20 00:43:00,
2013-03-19 20:48:00,60.3,40.5,29.93,NW,324,0.0,0.0,48,0.00,CLR,,0.21,0.0,WeatherDisplay:10.37,2013-03-20 00:48:00,
2013-03-19 20:53:00,59.9,40.7,29.93,NW,324,0.0,0.0,49,0.00,CLR,,0.21,0.0,WeatherDisplay:10.37,2013-03-20 00:53:00,
2013-03-19 20:58:00,59.5,40.8,29.93,NW,324,0.0,0.0,50,0.00,CLR,,0.21,0.0,WeatherDisplay:10.37,2013-03-20 00:58:00,
2013-03-19 21:03:00,59.2,40.6,29.94,NW,324,0.0,0.0,50,0.00,CLR,,0.21,0.0,WeatherDisplay:10.37,2013-03-20 01:03:00,
2013-03-19 21:08:00,58.9,40.8,29.94,NW,324,0.0,0.0,51,0.00,CLR,,0.21,0.0,WeatherDisplay:10.37,2013-03-20 01:08:00,
2013-03-19 21:13:00,58.7,42.1,29.94,NW,324,0.0,0.0,54,0.00,CLR,,0.21,0.0,WeatherDisplay:10.37,2013-03-20 01:13:00,
2013-03-19 21:18:00,58.4,41.8,29.95,NW,324,0.0,0.0,54,0.00,CLR,,0.21,0.0,WeatherDisplay:10.37,2013-03-20 01:18:00,
2013-03-19 21:23:00,58.3,42.2,29.95,NNW,340,0.0,0.0,55,0.00,CLR,,0.21,0.0,WeatherDisplay:10.37,2013-03-20 01:23:00,
2013-03-19 21:28:00,58.2,43.5,29.95,NNW,341,0.0,0.0,58,0.00,CLR,,0.21,0.0,WeatherDisplay:10.37,2013-03-20 01:28:00,
2013-03-19 21:33:00,58.0,43.3,29.95,NNW,340,0.0,0.0,58,0.00,CLR,,0.21,0.0,WeatherDisplay:10.37,2013-03-20 01:33:00,
2013-03-19 21:38:00,57.7,42.6,29.95,NNW,340,0.0,0.0,57,0.00,CLR,,0.21,0.0,WeatherDisplay:10.37,2013-03-20 01:38:00,
2013-03-19 21:43:00,57.4,42.7,29.95,NNW,340,0.0,0.0,58,0.00,CLR,,0.21,0.0,WeatherDisplay:10.37,2013-03-20 01:43:00,
2013-03-19 21:48:00,57.2,43.4,29.95,NNW,340,1.2,0.0,60,0.00,CLR,,0.21,0.0,WeatherDisplay:10.37,2013-03-20 01:48:00,
2013-03-19 21:53:00,56.9,43.2,29.96,NNW,340,0.0,0.0,60,0.00,CLR,,0.21,0.0,WeatherDisplay:10.37,2013-03-20 01:53:00,
2013-03-19 21:58:00,56.6,42.4,29.96,NNW,340,0.0,0.0,59,0.00,CLR,,0.21,0.0,WeatherDisplay:10.37,2013-03-20 01:58:00,
2013-03-19 22:03:00,56.4,42.7,29.96,NNW,340,1.0,0.0,60,0.00,CLR,,0.21,0.0,WeatherDisplay:10.37,2013-03-20 02:03:00,
2013-03-19 22:08:00,56.1,42.4,29.96,North,359,2.0,2.0,60,0.00,CLR,,0.21,0.0,WeatherDisplay:10.37,2013-03-20 02:08:00,
2013-03-19 22:13:00,55.8,40.8,29.96,North,349,2.3,2.3,57,0.00,CLR,,0.21,0.0,WeatherDisplay:10.37,2013-03-20 02:13:00,
2013-03-19 22:18:00,55.7,40.7,29.96,North,354,2.3,2.3,57,0.00,CLR,,0.21,0.0,WeatherDisplay:10.37,2013-03-20 02:18:00,
2013-03-19 22:23:00,55.9,38.5,29.96,North,354,3.5,3.5,52,0.00,RA,,0.21,0.0,WeatherDisplay:10.37,2013-03-20 02:23:00,
2013-03-19 22:28:00,56.3,39.9,29.96,North,8,3.5,3.5,54,0.00,RA,,0.21,0.0,WeatherDisplay:10.37,2013-03-20 02:28:00,
2013-03-19 22:33:00,56.9,38.9,29.96,North,354,3.5,3.5,51,0.00,CLR,,0.21,0.0,WeatherDisplay:10.37,2013-03-20 02:33:00,
2013-03-19 22:38:00,57.6,36.4,29.96,NNE,12,4.6,4.6,45,0.00,CLR,,0.21,0.0,WeatherDisplay:10.37,2013-03-20 02:38:00,
2013-03-19 22:43:00,58.4,35.4,29.96,North,354,3.5,3.5,42,0.00,CLR,,0.21,0.0,WeatherDisplay:10.37,2013-03-20 02:43:00,
2013-03-19 22:48:00,59.0,34.1,29.96,North,350,4.6,4.6,39,0.00,CLR,,0.21,0.0,WeatherDisplay:10.37,2013-03-20 02:48:00,
2013-03-19 22:53:00,59.7,32.0,29.96,NNW,327,2.3,2.3,35,0.00,CLR,,0.21,0.0,WeatherDisplay:10.37,2013-03-20 02:53:00,
2013-03-19 22:58:00,60.2,33.8,29.96,NNW,335,3.5,3.5,37,0.00,CLR,,0.21,0.0,WeatherDisplay:10.37,2013-03-20 02:58:00,
2013-03-19 23:03:00,60.4,33.3,29.97,North,354,3.5,3.5,36,0.00,CLR,,0.21,0.0,WeatherDisplay:10.37,2013-03-20 03:03:00,
2013-03-19 23:08:00,60.4,35.3,29.97,NW,314,5.8,5.8,39,0.00,CLR,,0.21,0.0,WeatherDisplay:10.37,2013-03-20 03:08:00,
2013-03-19 23:13:00,60.7,32.9,29.97,NNW,346,6.9,6.9,35,0.00,CLR,,0.21,0.0,WeatherDisplay:10.37,2013-03-20 03:13:00,
2013-03-19 23:18:00,60.9,32.3,29.97,NW,312,4.6,4.6,34,0.00,CLR,,0.21,0.0,WeatherDisplay:10.37,2013-03-20 03:18:00,
2013-03-19 23:23:00,60.8,34.3,29.97,NNW,348,3.5,3.5,37,0.00,CLR,,0.21,0.0,WeatherDisplay:10.37,2013-03-20 03:23:00,
2013-03-19 23:28:00,60.6,32.1,29.97,North,359,6.9,6.9,34,0.00,CLR,,0.21,0.0,WeatherDisplay:10.37,2013-03-20 03:28:00,
2013-03-19 23:33:00,60.5,31.2,29.97,NNW,347,4.6,4.6,33,0.00,CLR,,0.21,0.0,WeatherDisplay:10.37,2013-03-20 03:33:00,
2013-03-19 23:38:00,60.5,30.5,29.97,NW,314,3.5,3.5,32,0.00,CLR,,0.21,0.0,WeatherDisplay:10.37,2013-03-20 03:38:00,
2013-03-19 23:43:00,60.5,32.0,29.97,North,349,3.5,3.5,34,0.00,CLR,,0.21,0.0,WeatherDisplay:10.37,2013-03-20 03:43:00,
2013-03-19 23:48:00,60.5,31.2,29.97,NNW,342,5.0,5.0,33,0.00,CLR,,0.21,0.0,WeatherDisplay:10.37,2013-03-20 03:48:00,
2013-03-19 23:53:00,60.4,33.3,29.97,North,354,2.3,2.3,36,0.00,CLR,,0.21,0.0,WeatherDisplay:10.37,2013-03-20 03:53:00,
2013-03-19 23:59:00,60.0,32.2,29.97,NNW,338,2.3,2.3,35,0.00,CLR,,0.21,0.0,WeatherDisplay:10.37,2013-03-20 03:59:00,